createdAt,value
2022-10-01T00:01:13.888Z,79.26
2022-10-01T00:03:40.965Z,79.02
2022-10-01T00:06:11.149Z,79.20
2022-10-01T00:08:40.161Z,79.60
2022-10-01T00:11:15.333Z,79.34
2022-10-01T00:13:43.199Z,79.17
2022-10-01T00:16:13.317Z,79.12
2022-10-01T00:18:41.899Z,78.65
2022-10-01T00:21:14.543Z,78.56
2022-10-01T00:23:41.023Z,78.89
2022-10-01T00:26:18.112Z,78.71
2022-10-01T00:28:46.341Z,78.61
2022-10-01T00:31:14.376Z,78.70
2022-10-01T00:33:41.396Z,78.71
2022-10-01T00:36:09.791Z,78.75
2022-10-01T00:38:37.854Z,80.64
2022-10-01T00:41:05.267Z,79.53
2022-10-01T00:43:37.846Z,78.91
2022-10-01T00:46:15.666Z,78.71
2022-10-01T00:48:58.128Z,78.83
2022-10-01T00:51:32.831Z,78.69
2022-10-01T00:54:10.413Z,78.40
2022-10-01T00:56:38.169Z,78.63
2022-10-01T00:59:05.931Z,78.36
2022-10-01T01:01:37.073Z,78.98
2022-10-01T01:04:03.947Z,78.77
2022-10-01T01:06:30.600Z,78.69
2022-10-01T01:08:57.058Z,78.71
2022-10-01T01:11:48.550Z,78.33
2022-10-01T01:15:04.749Z,78.62
2022-10-01T01:17:36.725Z,78.91
2022-10-01T01:20:12.929Z,78.69
2022-10-01T01:22:48.368Z,78.56
2022-10-01T01:25:22.255Z,78.26
2022-10-01T01:28:31.763Z,78.41
2022-10-01T01:31:01.121Z,78.45
2022-10-01T01:33:33.067Z,78.41
2022-10-01T01:36:04.688Z,78.88
2022-10-01T01:38:39.546Z,78.66
2022-10-01T01:41:07.845Z,78.79
2022-10-01T01:43:40.651Z,78.60
2022-10-01T01:46:10.585Z,78.46
2022-10-01T01:48:39.875Z,78.69
2022-10-01T01:51:18.813Z,78.34
2022-10-01T01:53:45.305Z,78.75
2022-10-01T01:56:11.874Z,78.71
2022-10-01T01:58:39.191Z,78.84
2022-10-01T02:01:05.709Z,78.52
2022-10-01T02:03:34.788Z,78.83
2022-10-01T02:06:23.512Z,78.77
2022-10-01T02:09:33.068Z,79.09
2022-10-01T02:12:35.560Z,78.74
2022-10-01T02:15:12.725Z,78.58
2022-10-01T02:18:02.202Z,78.60
2022-10-01T02:20:38.231Z,78.74
2022-10-01T02:23:10.930Z,78.52
2022-10-01T02:25:46.661Z,81.16
2022-10-01T02:28:18.754Z,83.01
2022-10-01T02:30:47.202Z,79.72
2022-10-01T02:33:17.260Z,79.49
2022-10-01T02:35:48.064Z,79.10
2022-10-01T02:38:16.740Z,78.92
2022-10-01T02:40:46.350Z,78.89
2022-10-01T02:43:16.372Z,78.65
2022-10-01T02:45:46.594Z,78.92
2022-10-01T02:48:18.060Z,79.05
2022-10-01T02:50:50.818Z,78.71
2022-10-01T02:53:25.966Z,79.61
2022-10-01T02:55:53.406Z,78.88
2022-10-01T02:58:20.204Z,79.51
2022-10-01T03:00:46.644Z,78.73
2022-10-01T03:03:13.109Z,79.12
2022-10-01T03:05:39.551Z,79.15
2022-10-01T03:08:05.964Z,79.75
2022-10-01T03:10:32.396Z,79.09
2022-10-01T03:13:01.570Z,78.52
2022-10-01T03:15:29.073Z,78.70
2022-10-01T03:17:55.535Z,78.76
2022-10-01T03:20:22.324Z,78.85
2022-10-01T03:22:48.992Z,79.28
2022-10-01T03:25:16.197Z,79.43
2022-10-01T03:27:43.088Z,79.13
2022-10-01T03:30:10.718Z,78.66
2022-10-01T03:32:37.502Z,78.96
2022-10-01T03:35:04.375Z,78.61
2022-10-01T03:37:30.794Z,78.78
2022-10-01T03:39:57.187Z,79.07
2022-10-01T03:42:23.583Z,79.03
2022-10-01T03:44:49.967Z,78.19
2022-10-01T03:47:16.515Z,78.91
2022-10-01T03:49:42.985Z,78.94
2022-10-01T03:52:09.408Z,79.14
2022-10-01T03:54:35.815Z,78.63
2022-10-01T03:57:02.340Z,78.92
2022-10-01T03:59:29.558Z,77.37
2022-10-01T04:01:56.120Z,78.82
2022-10-01T04:04:22.639Z,78.49
2022-10-01T04:06:49.042Z,78.76
2022-10-01T04:09:15.549Z,78.60
2022-10-01T04:11:41.975Z,78.27
2022-10-01T04:14:08.988Z,78.80
2022-10-01T04:16:36.188Z,78.96
2022-10-01T04:19:04.143Z,79.08
2022-10-01T04:21:30.743Z,78.88
2022-10-01T04:23:57.221Z,79.15
2022-10-01T04:26:23.730Z,78.80
2022-10-01T04:28:50.088Z,78.76
2022-10-01T04:31:25.428Z,79.33
2022-10-01T04:33:56.710Z,78.72
2022-10-01T04:36:24.982Z,78.49
2022-10-01T04:38:55.703Z,78.37
2022-10-01T04:41:26.066Z,75.73
2022-10-01T04:43:52.656Z,78.56
2022-10-01T04:46:19.162Z,78.26
2022-10-01T04:48:48.174Z,78.23
2022-10-01T04:51:14.794Z,78.53
2022-10-01T04:53:41.737Z,79.02
2022-10-01T04:56:08.168Z,78.66
2022-10-01T04:58:34.965Z,75.27
2022-10-01T05:01:02.421Z,78.70
2022-10-01T05:03:29.047Z,79.21
2022-10-01T05:05:55.477Z,78.97
2022-10-01T05:08:23.119Z,79.16
2022-10-01T05:10:49.570Z,78.61
2022-10-01T05:13:16.051Z,78.74
2022-10-01T05:15:42.425Z,78.61
2022-10-01T05:18:08.826Z,78.70
2022-10-01T05:20:35.335Z,78.76
2022-10-01T05:23:01.777Z,78.72
2022-10-01T05:25:28.188Z,78.54
2022-10-01T05:28:04.969Z,78.68
2022-10-01T05:30:32.017Z,78.14
2022-10-01T05:33:01.237Z,78.38
2022-10-01T05:35:28.861Z,78.19
2022-10-01T05:37:59.964Z,78.46
2022-10-01T05:40:28.606Z,78.45
2022-10-01T05:42:56.933Z,74.83
2022-10-01T05:45:23.550Z,77.38
2022-10-01T05:48:00.890Z,81.84
2022-10-01T05:50:31.258Z,79.60
2022-10-01T05:52:57.760Z,78.63
2022-10-01T05:55:24.339Z,78.87
2022-10-01T05:58:00.284Z,78.51
2022-10-01T06:00:29.107Z,75.74
2022-10-01T06:03:00.636Z,77.41
2022-10-01T06:05:28.629Z,79.08
2022-10-01T06:07:55.197Z,78.63
2022-10-01T06:10:22.272Z,77.88
2022-10-01T06:12:49.444Z,84.91
2022-10-01T06:15:17.081Z,86.02
2022-10-01T06:17:45.063Z,81.97
2022-10-01T06:20:13.715Z,79.54
2022-10-01T06:22:41.067Z,79.00
2022-10-01T06:25:08.172Z,79.53
2022-10-01T06:27:34.585Z,78.65
2022-10-01T06:30:00.989Z,79.07
2022-10-01T06:32:29.630Z,79.10
2022-10-01T06:34:59.270Z,78.71
2022-10-01T06:37:25.702Z,79.10
2022-10-01T06:39:52.067Z,78.59
2022-10-01T06:42:18.549Z,78.74
2022-10-01T06:44:44.980Z,78.96
2022-10-01T06:47:11.349Z,78.95
2022-10-01T06:49:37.757Z,78.16
2022-10-01T06:52:22.492Z,77.57
2022-10-01T06:54:48.901Z,81.08
2022-10-01T06:57:15.319Z,79.71
2022-10-01T06:59:41.723Z,79.77
2022-10-01T07:02:20.008Z,79.03
2022-10-01T07:04:47.838Z,78.94
2022-10-01T07:07:14.268Z,78.65
2022-10-01T07:09:40.658Z,78.71
2022-10-01T07:12:07.052Z,79.23
2022-10-01T07:14:33.497Z,79.00
2022-10-01T07:16:59.900Z,78.78
2022-10-01T07:19:26.304Z,78.08
2022-10-01T07:21:52.691Z,78.68
2022-10-01T07:24:19.104Z,78.36
2022-10-01T07:26:45.579Z,79.71
2022-10-01T07:29:12.008Z,81.82
2022-10-01T07:31:38.834Z,80.34
2022-10-01T07:34:05.468Z,82.79
2022-10-01T07:36:31.886Z,84.01
2022-10-01T07:38:59.064Z,84.50
2022-10-01T07:41:25.500Z,86.21
2022-10-01T07:43:51.896Z,86.21
2022-10-01T07:46:18.398Z,86.48
2022-10-01T07:48:46.187Z,85.82
2022-10-01T07:51:12.599Z,82.70
2022-10-01T07:53:39.016Z,80.96
2022-10-01T07:56:05.719Z,83.48
2022-10-01T07:58:32.123Z,81.60
2022-10-01T08:01:03.777Z,81.69
2022-10-01T08:03:30.275Z,84.04
2022-10-01T08:05:56.734Z,85.18
2022-10-01T08:08:23.256Z,85.73
2022-10-01T08:10:50.624Z,86.10
2022-10-01T08:13:17.733Z,85.04
2022-10-01T08:15:46.590Z,83.65
2022-10-01T08:18:13.495Z,81.50
2022-10-01T08:20:40.075Z,80.92
2022-10-01T08:23:09.561Z,80.34
2022-10-01T08:25:36.956Z,83.71
2022-10-01T08:28:04.109Z,81.04
2022-10-01T08:30:30.896Z,80.48
2022-10-01T08:32:58.848Z,84.60
2022-10-01T08:35:27.067Z,84.45
2022-10-01T08:37:54.963Z,81.71
2022-10-01T08:40:22.235Z,80.88
2022-10-01T08:43:00.003Z,84.17
2022-10-01T08:45:32.769Z,85.43
2022-10-01T08:48:16.757Z,84.74
2022-10-01T08:50:54.211Z,85.34
2022-10-01T08:53:36.477Z,86.22
2022-10-01T08:56:04.191Z,85.19
2022-10-01T08:58:43.968Z,84.99
2022-10-01T09:01:11.780Z,85.83
2022-10-01T09:03:39.190Z,85.50
2022-10-01T09:06:18.891Z,84.86
2022-10-01T09:08:48.230Z,85.93
2022-10-01T09:11:26.953Z,85.13
2022-10-01T09:14:18.816Z,82.04
2022-10-01T09:17:06.125Z,81.81
2022-10-01T09:19:57.819Z,84.26
2022-10-01T09:22:39.551Z,85.12
2022-10-01T09:25:09.055Z,86.25
2022-10-01T09:27:38.318Z,85.07
2022-10-01T09:30:10.798Z,85.03
2022-10-01T09:32:44.780Z,82.36
2022-10-01T09:35:47.027Z,83.49
2022-10-01T09:38:41.510Z,84.77
2022-10-01T09:41:10.401Z,84.35
2022-10-01T09:43:39.475Z,82.54
2022-10-01T09:46:13.318Z,81.34
2022-10-01T09:48:59.089Z,82.45
2022-10-01T09:51:36.877Z,81.34
2022-10-01T09:54:20.807Z,84.19
2022-10-01T09:56:59.858Z,85.01
2022-10-01T09:59:58.875Z,81.39
2022-10-01T10:02:50.057Z,82.19
2022-10-01T10:05:27.888Z,81.50
2022-10-01T10:08:05.548Z,84.98
2022-10-01T10:10:39.504Z,85.41
2022-10-01T10:13:27.065Z,83.11
2022-10-01T10:15:59.419Z,84.38
2022-10-01T10:18:34.512Z,84.96
2022-10-01T10:21:20.834Z,82.70
2022-10-01T10:23:53.061Z,82.58
2022-10-01T10:26:28.644Z,85.11
2022-10-01T10:28:58.530Z,83.19
2022-10-01T10:31:27.861Z,81.85
2022-10-01T10:34:13.525Z,85.09
2022-10-01T10:36:41.749Z,84.52
2022-10-01T10:39:21.615Z,82.19
2022-10-01T10:41:49.909Z,81.20
2022-10-01T10:44:22.209Z,82.38
2022-10-01T10:46:52.862Z,86.25
2022-10-01T10:49:29.999Z,86.97
2022-10-01T10:51:58.516Z,84.98
2022-10-01T10:54:29.146Z,85.56
2022-10-01T10:57:02.614Z,87.00
2022-10-01T10:59:32.006Z,82.53
2022-10-01T11:02:04.626Z,81.55
2022-10-01T11:04:41.773Z,81.36
2022-10-01T11:07:10.781Z,81.46
2022-10-01T11:10:05.866Z,85.60
2022-10-01T11:12:38.446Z,82.26
2022-10-01T11:15:13.960Z,84.36
2022-10-01T11:17:49.387Z,86.50
2022-10-01T11:20:22.231Z,86.93
2022-10-01T11:23:37.668Z,83.51
2022-10-01T11:26:30.739Z,82.07
2022-10-01T11:29:12.100Z,85.64
2022-10-01T11:32:03.111Z,86.06
2022-10-01T11:35:03.939Z,82.01
2022-10-01T11:37:52.216Z,81.53
2022-10-01T11:40:31.363Z,81.30
2022-10-01T11:43:03.509Z,81.66
2022-10-01T11:45:39.204Z,84.96
2022-10-01T11:48:12.595Z,86.06
2022-10-01T11:50:49.835Z,85.28
2022-10-01T11:53:30.877Z,85.95
2022-10-01T11:56:30.453Z,85.83
2022-10-01T11:59:02.151Z,85.70
2022-10-01T12:01:49.633Z,87.41
2022-10-01T12:04:35.140Z,86.98
2022-10-01T12:07:29.060Z,86.42
2022-10-01T12:09:55.389Z,85.04
2022-10-01T12:12:56.797Z,86.84
2022-10-01T12:15:52.855Z,85.81
2022-10-01T12:18:30.299Z,82.20
2022-10-01T12:21:03.107Z,82.01
2022-10-01T12:23:34.806Z,85.10
2022-10-01T12:26:38.564Z,87.54
2022-10-01T12:29:29.841Z,86.75
2022-10-01T12:32:04.863Z,87.22
2022-10-01T12:34:51.731Z,86.74
2022-10-01T12:37:58.400Z,85.54
2022-10-01T12:40:35.668Z,82.25
2022-10-01T12:43:22.866Z,82.99
2022-10-01T12:46:24.631Z,81.76
2022-10-01T12:49:46.573Z,81.60
2022-10-01T12:52:47.675Z,84.75
2022-10-01T12:55:29.356Z,81.76
2022-10-01T12:58:36.322Z,81.67
2022-10-01T13:01:08.004Z,81.42
2022-10-01T13:03:40.341Z,81.10
2022-10-01T13:06:31.223Z,81.23
2022-10-01T13:09:16.197Z,81.46
2022-10-01T13:12:03.016Z,81.13
2022-10-01T13:14:33.066Z,80.73
2022-10-01T13:17:34.595Z,81.96
2022-10-01T13:20:41.022Z,81.39
2022-10-01T13:23:11.532Z,81.08
2022-10-01T13:25:47.333Z,81.02
2022-10-01T13:28:30.705Z,80.87
2022-10-01T13:31:00.422Z,80.84
2022-10-01T13:33:36.079Z,81.32
2022-10-01T13:36:08.013Z,81.12
2022-10-01T13:38:46.423Z,81.02
2022-10-01T13:41:20.472Z,80.84
2022-10-01T13:44:08.972Z,81.38
2022-10-01T13:47:02.156Z,80.64
2022-10-01T13:49:30.878Z,80.83
2022-10-01T13:51:58.484Z,82.23
2022-10-01T13:54:52.559Z,81.23
2022-10-01T13:57:28.830Z,80.80
2022-10-01T14:00:13.349Z,80.98
2022-10-01T14:02:43.459Z,80.91
2022-10-01T14:05:34.909Z,81.25
2022-10-01T14:08:41.546Z,84.84
2022-10-01T14:11:40.308Z,83.43
2022-10-01T14:14:31.854Z,86.09
2022-10-01T14:16:59.616Z,83.41
2022-10-01T14:19:27.951Z,83.69
2022-10-01T14:22:06.097Z,84.49
2022-10-01T14:24:44.549Z,83.33
2022-10-01T14:27:20.002Z,81.16
2022-10-01T14:29:59.785Z,85.90
2022-10-01T14:32:44.284Z,81.88
2022-10-01T14:35:23.473Z,84.33
2022-10-01T14:37:51.387Z,81.18
2022-10-01T14:40:21.159Z,81.46
2022-10-01T14:43:02.332Z,87.32
2022-10-01T14:45:29.266Z,88.27
2022-10-01T14:48:04.204Z,88.18
2022-10-01T14:50:33.991Z,82.59
2022-10-01T14:53:00.576Z,84.94
2022-10-01T14:55:27.880Z,83.39
2022-10-01T14:57:56.427Z,81.79
2022-10-01T15:00:28.466Z,81.62
2022-10-01T15:03:15.469Z,81.16
2022-10-01T15:05:43.595Z,81.15
2022-10-01T15:08:16.221Z,80.72
2022-10-01T15:11:03.772Z,80.90
2022-10-01T15:13:35.318Z,81.66
2022-10-01T15:16:02.747Z,81.28
2022-10-01T15:18:30.691Z,80.91
2022-10-01T15:21:06.623Z,81.20
2022-10-01T15:23:36.565Z,81.09
2022-10-01T15:26:05.652Z,80.81
2022-10-01T15:28:34.633Z,81.10
2022-10-01T15:31:06.504Z,81.43
2022-10-01T15:33:36.037Z,81.04
2022-10-01T15:36:05.442Z,80.98
2022-10-01T15:38:33.655Z,81.07
2022-10-01T15:41:26.882Z,81.96
2022-10-01T15:43:49.848Z,80.76
2022-10-01T15:46:22.576Z,80.94
2022-10-01T15:49:12.028Z,81.18
2022-10-01T15:52:06.919Z,80.66
2022-10-01T15:54:34.361Z,80.55
2022-10-01T15:57:02.637Z,84.95
2022-10-01T15:59:29.836Z,82.05
2022-10-01T16:01:57.303Z,85.14
2022-10-01T16:04:23.836Z,81.69
2022-10-01T16:06:54.544Z,81.31
2022-10-01T16:09:23.833Z,81.16
2022-10-01T16:12:03.516Z,80.67
2022-10-01T16:14:42.189Z,81.22
2022-10-01T16:17:26.851Z,80.58
2022-10-01T16:19:59.113Z,80.90
2022-10-01T16:22:28.877Z,81.63
2022-10-01T16:24:58.260Z,82.72
2022-10-01T16:27:28.175Z,83.50
2022-10-01T16:30:08.877Z,81.88
2022-10-01T16:32:35.868Z,80.96
2022-10-01T16:35:24.957Z,81.06
2022-10-01T16:37:55.109Z,82.47
2022-10-01T16:40:24.120Z,80.96
2022-10-01T16:42:51.276Z,81.63
2022-10-01T16:45:20.384Z,80.64
2022-10-01T16:47:46.907Z,80.58
2022-10-01T16:50:15.599Z,80.29
2022-10-01T16:52:42.180Z,81.73
2022-10-01T16:55:17.107Z,80.74
2022-10-01T16:57:43.790Z,80.72
2022-10-01T17:00:15.217Z,80.79
2022-10-01T17:02:42.091Z,82.38
2022-10-01T17:05:30.383Z,81.53
2022-10-01T17:08:00.809Z,80.94
2022-10-01T17:10:30.919Z,80.84
2022-10-01T17:12:59.306Z,80.52
2022-10-01T17:15:27.843Z,80.38
2022-10-01T17:17:55.370Z,80.68
2022-10-01T17:20:22.298Z,81.71
2022-10-01T17:22:49.531Z,80.67
2022-10-01T17:25:19.089Z,82.23
2022-10-01T17:27:46.044Z,80.26
2022-10-01T17:30:13.267Z,80.71
2022-10-01T17:32:42.801Z,80.29
2022-10-01T17:35:13.844Z,75.08
2022-10-01T17:37:41.642Z,80.40
2022-10-01T17:40:10.212Z,76.12
2022-10-01T17:42:36.628Z,78.05
2022-10-01T17:45:05.843Z,80.01
2022-10-01T17:47:33.466Z,80.05
2022-10-01T17:50:00.081Z,79.86
2022-10-01T17:52:26.607Z,77.21
2022-10-01T17:54:53.006Z,80.01
2022-10-01T17:57:19.489Z,76.82
2022-10-01T17:59:45.856Z,71.25
2022-10-01T18:02:36.616Z,78.98
2022-10-01T18:04:59.322Z,77.76
2022-10-01T18:07:27.045Z,79.68
2022-10-01T18:09:53.862Z,77.52
2022-10-01T18:12:20.748Z,78.16
2022-10-01T18:14:47.673Z,79.08
2022-10-01T18:17:14.096Z,79.51
2022-10-01T18:22:27.733Z,71.66
2022-10-01T18:24:54.443Z,78.81
2022-10-01T18:27:20.873Z,74.93
2022-10-01T18:29:47.299Z,76.61
2022-10-01T18:32:25.368Z,71.48
2022-10-01T18:35:00.551Z,72.00
2022-10-01T18:37:45.597Z,70.29
2022-10-01T18:40:17.130Z,67.39
2022-10-01T18:42:51.296Z,78.37
2022-10-01T18:45:46.682Z,78.20
2022-10-01T18:48:19.898Z,78.48
2022-10-01T18:51:04.168Z,75.90
2022-10-01T18:53:40.797Z,74.07
2022-10-01T18:56:22.381Z,75.19
2022-10-01T18:59:21.543Z,77.05
2022-10-01T19:02:13.028Z,76.47
2022-10-01T19:05:23.295Z,75.94
2022-10-01T19:08:06.773Z,75.81
2022-10-01T19:10:56.439Z,78.06
2022-10-01T19:13:22.768Z,78.20
2022-10-01T19:16:18.239Z,73.76
2022-10-01T19:19:25.296Z,74.86
2022-10-01T19:22:02.778Z,75.22
2022-10-01T19:24:58.104Z,77.45
2022-10-01T19:27:54.683Z,78.38
2022-10-01T19:30:21.353Z,75.71
2022-10-01T19:32:56.413Z,78.58
2022-10-01T19:35:53.525Z,80.41
2022-10-01T19:38:29.685Z,78.53
2022-10-01T19:41:02.497Z,78.23
2022-10-01T19:43:38.322Z,78.01
2022-10-01T19:46:13.013Z,79.48
2022-10-01T19:48:49.752Z,79.65
2022-10-01T19:51:21.053Z,78.89
2022-10-01T19:53:51.799Z,79.38
2022-10-01T19:56:26.190Z,79.39
2022-10-01T19:58:52.654Z,81.81
2022-10-01T20:01:21.664Z,80.27
2022-10-01T20:04:00.369Z,79.40
2022-10-01T20:06:30.399Z,79.95
2022-10-01T20:09:08.247Z,80.07
2022-10-01T20:11:46.630Z,79.40
2022-10-01T20:14:56.419Z,80.47
2022-10-01T20:17:47.824Z,80.05
2022-10-01T20:20:24.128Z,79.81
2022-10-01T20:23:02.613Z,79.29
2022-10-01T20:25:44.227Z,80.03
2022-10-01T20:28:27.774Z,80.13
2022-10-01T20:30:59.163Z,80.07
2022-10-01T20:33:37.413Z,80.06
2022-10-01T20:36:18.774Z,81.09
2022-10-01T20:39:17.685Z,80.72
2022-10-01T20:41:48.091Z,79.89
2022-10-01T20:44:18.653Z,79.86
2022-10-01T20:46:48.447Z,80.84
2022-10-01T20:49:18.039Z,81.30
2022-10-01T20:51:51.276Z,81.74
2022-10-01T20:54:27.168Z,83.69
2022-10-01T20:56:59.701Z,81.77
2022-10-01T20:59:32.540Z,80.53
2022-10-01T21:02:03.257Z,80.14
2022-10-01T21:04:37.595Z,81.28
2022-10-01T21:07:39.171Z,81.42
2022-10-01T21:10:28.898Z,80.32
2022-10-01T21:13:23.854Z,82.96
2022-10-01T21:16:17.623Z,80.94
2022-10-01T21:19:14.039Z,81.44
2022-10-01T21:22:02.285Z,82.11
2022-10-01T21:24:57.283Z,80.01
2022-10-01T21:27:40.327Z,79.96
2022-10-01T21:30:16.345Z,82.64
2022-10-01T21:33:02.612Z,84.12
2022-10-01T21:35:50.422Z,82.00
2022-10-01T21:38:28.104Z,82.14
2022-10-01T21:41:01.018Z,81.24
2022-10-01T21:43:42.590Z,80.48
2022-10-01T21:46:32.561Z,81.93
2022-10-01T21:49:22.128Z,80.37
2022-10-01T21:52:10.788Z,78.73
2022-10-01T21:55:17.212Z,79.88
2022-10-01T21:57:54.655Z,80.01
2022-10-01T22:00:26.305Z,79.40
2022-10-01T22:03:27.394Z,79.61
2022-10-01T22:06:07.356Z,82.05
2022-10-01T22:08:33.805Z,80.55
2022-10-01T22:11:04.248Z,82.19
2022-10-01T22:13:35.772Z,82.85
2022-10-01T22:16:14.332Z,82.16
2022-10-01T22:18:49.016Z,80.65
2022-10-01T22:21:35.867Z,80.08
2022-10-01T22:24:10.419Z,80.60
2022-10-01T22:26:43.567Z,79.45
2022-10-01T22:29:18.193Z,80.02
2022-10-01T22:31:47.216Z,78.91
2022-10-01T22:34:25.913Z,77.74
2022-10-01T22:37:00.118Z,78.89
2022-10-01T22:39:30.754Z,79.55
2022-10-01T22:42:16.096Z,79.28
2022-10-01T22:44:43.039Z,79.83
2022-10-01T22:47:25.719Z,79.48
2022-10-01T22:50:17.098Z,81.80
2022-10-01T22:53:07.847Z,81.23
2022-10-01T22:55:52.591Z,80.48
2022-10-01T22:58:34.931Z,81.04
2022-10-01T23:01:33.125Z,80.36
2022-10-01T23:04:23.979Z,80.39
2022-10-01T23:07:01.933Z,83.57
2022-10-01T23:09:48.688Z,80.80
2022-10-01T23:12:22.557Z,80.24
2022-10-01T23:15:00.567Z,80.61
2022-10-01T23:17:45.508Z,81.30
2022-10-01T23:20:22.736Z,80.45
2022-10-01T23:22:55.881Z,80.52
2022-10-01T23:25:44.005Z,80.01
2022-10-01T23:28:38.968Z,79.86
2022-10-01T23:31:17.352Z,79.55
2022-10-01T23:33:58.601Z,78.74
2022-10-01T23:36:25.027Z,79.75
2022-10-01T23:38:57.478Z,77.58
2022-10-01T23:41:32.554Z,79.94
2022-10-01T23:44:10.158Z,77.39
2022-10-01T23:46:40.053Z,76.80
2022-10-01T23:49:14.492Z,78.60
2022-10-01T23:51:55.488Z,79.21
2022-10-01T23:54:41.955Z,77.16
2022-10-01T23:57:23.865Z,77.39
